GRZ525 Details

Departure: Edmonton International Airport (CYEG)
Arrival: Ted Stevens Anchorage International Airport (PANC)
Route: NUBEG NCA11 REMBY PTERS3


Current Weather Information
CYEG 230701Z 31017G28KT 20SM FEW025 SCT040 OVC070 02/M02 A3003 RMK SC2SC2AC4 SLP200
PANC 230653Z 29009KT 10SM FEW070 OVC110 04/01 A2972 RMK AO2 SLP065 T00390011